Time;durP1;ratioP1;P1;durP2;ratioP2;P2;SDS_P1;SDS_P2;PMS_P1;PMS_P2;Temp;Humidity;BMP_temperature;BMP_pressure;BME280_temperature;BME280_humidity;BME280_pressure;Samples;Min_cycle;Max_cycle;Signal;HPM_P1;HPM_P2
2023/11/06 00:02:31;;;;;;;2.45;0.80;;;9.90;99.90;;;;;;7547451;19;20011;-78
2023/11/06 00:05:04;;;;;;;2.28;0.65;;;9.90;99.90;;;;;;7558890;19;20011;-78
2023/11/06 00:07:38;;;;;;;2.40;0.68;;;9.90;99.90;;;;;;7563870;19;20026;-78
2023/11/06 00:10:11;;;;;;;1.00;0.60;;;9.80;99.90;;;;;;7561950;19;20010;-78
2023/11/06 00:12:45;;;;;;;1.50;0.60;;;9.80;99.90;;;;;;7553966;19;20484;-78
2023/11/06 00:15:20;;;;;;;2.33;0.80;;;9.80;99.90;;;;;;7547228;19;20018;-78
2023/11/06 00:17:55;;;;;;;3.67;0.98;;;9.90;99.90;;;;;;7550408;19;20022;-77
2023/11/06 00:20:27;;;;;;;0.75;0.55;;;9.80;99.90;;;;;;7535236;19;20402;-77
2023/11/06 00:23:00;;;;;;;1.63;0.73;;;9.80;99.90;;;;;;7551848;19;20033;-78
2023/11/06 00:25:32;;;;;;;3.70;0.85;;;9.80;99.90;;;;;;7537205;19;20019;-78
2023/11/06 00:28:05;;;;;;;1.35;0.60;;;9.80;99.90;;;;;;7550688;19;20018;-78
2023/11/06 00:30:38;;;;;;;3.10;0.80;;;9.70;99.90;;;;;;7546032;19;20538;-79
2023/11/06 00:33:10;;;;;;;0.75;0.50;;;9.70;99.90;;;;;;7539135;19;20656;-77
2023/11/06 00:35:43;;;;;;;3.15;0.70;;;9.70;99.90;;;;;;7559761;19;20013;-77
2023/11/06 00:38:15;;;;;;;1.27;0.50;;;9.90;99.90;;;;;;7538896;19;20014;-78
2023/11/06 00:40:48;;;;;;;2.80;0.50;;;9.80;99.90;;;;;;7550767;19;20010;-77
2023/11/06 00:43:21;;;;;;;1.92;0.77;;;9.70;99.90;;;;;;7543430;19;20072;-76
2023/11/06 00:45:53;;;;;;;2.73;0.73;;;9.70;99.90;;;;;;7546087;19;21524;-75
2023/11/06 00:48:26;;;;;;;1.88;0.50;;;9.70;99.90;;;;;;7542567;19;20681;-78
2023/11/06 00:50:59;;;;;;;1.92;0.52;;;9.70;99.90;;;;;;7557604;19;20014;-78
2023/11/06 00:53:31;;;;;;;0.77;0.65;;;9.60;99.90;;;;;;7543311;19;20015;-78
2023/11/06 00:56:04;;;;;;;1.77;0.50;;;9.70;99.90;;;;;;7549330;19;20028;-78
2023/11/06 00:58:36;;;;;;;1.90;0.52;;;9.80;99.90;;;;;;7555181;19;21065;-78
2023/11/06 01:01:11;;;;;;;1.55;0.60;;;9.80;99.90;;;;;;7532224;19;20351;-77
2023/11/06 01:03:44;;;;;;;4.50;0.77;;;9.80;99.90;;;;;;7552049;19;20495;-77
2023/11/06 01:06:16;;;;;;;1.50;0.57;;;9.80;99.90;;;;;;7554656;19;20010;-77
2023/11/06 01:08:49;;;;;;;4.90;0.82;;;9.80;99.90;;;;;;7549052;19;20010;-77
2023/11/06 01:11:21;;;;;;;3.20;0.60;;;9.70;99.90;;;;;;7519014;19;20531;-76
2023/11/06 01:13:55;;;;;;;1.58;0.50;;;9.70;99.90;;;;;;7511171;19;20018;-76
2023/11/06 01:16:27;;;;;;;3.20;0.60;;;9.80;99.90;;;;;;7526349;19;20075;-76
2023/11/06 01:19:00;;;;;;;1.80;0.50;;;9.70;99.90;;;;;;7553072;19;20022;-77
2023/11/06 01:21:33;;;;;;;0.70;0.40;;;9.70;99.90;;;;;;7536492;19;20018;-76
2023/11/06 01:24:06;;;;;;;0.65;0.50;;;9.80;99.90;;;;;;7537922;19;20551;-76
2023/11/06 01:26:42;;;;;;;1.65;0.65;;;9.80;99.90;;;;;;7530947;19;20471;-76
2023/11/06 01:29:15;;;;;;;1.17;0.40;;;9.60;99.90;;;;;;7509450;19;20362;-75
2023/11/06 01:31:47;;;;;;;3.67;0.60;;;9.60;99.90;;;;;;7519435;19;20082;-76
2023/11/06 01:34:20;;;;;;;1.55;0.80;;;9.60;99.90;;;;;;7518555;19;20289;-78
2023/11/06 01:36:52;;;;;;;0.47;0.40;;;9.60;99.90;;;;;;7527103;19;20855;-78
2023/11/06 01:39:24;;;;;;;2.53;0.85;;;9.50;99.90;;;;;;7510019;19;20015;-77
2023/11/06 01:41:57;;;;;;;0.60;0.32;;;9.70;99.90;;;;;;7528848;19;20025;-78
2023/11/06 01:44:29;;;;;;;1.40;0.75;;;9.60;99.90;;;;;;7522799;19;21155;-78
2023/11/06 01:47:01;;;;;;;1.88;0.55;;;9.50;99.90;;;;;;7509449;19;20024;-77
2023/11/06 01:49:36;;;;;;;0.65;0.47;;;9.50;99.90;;;;;;7529975;19;21446;-78
2023/11/06 01:52:10;;;;;;;;;;;9.40;99.90;;;;;;7556284;19;20015;-78
2023/11/06 01:54:44;;;;;;;1.35;0.50;;;9.40;99.90;;;;;;7529758;19;20550;-79
2023/11/06 01:57:17;;;;;;;2.45;0.77;;;9.40;99.90;;;;;;7540282;19;20113;-75
2023/11/06 01:59:50;;;;;;;2.00;0.57;;;9.40;99.90;;;;;;7526177;19;20014;-76
2023/11/06 02:02:27;;;;;;;2.30;1.13;;;9.30;99.90;;;;;;7536325;19;20411;-78
2023/11/06 02:05:00;;;;;;;3.15;0.57;;;9.30;99.90;;;;;;7536755;19;21571;-78
2023/11/06 02:07:33;;;;;;;2.03;0.43;;;9.30;99.90;;;;;;7546277;19;20018;-79
2023/11/06 02:10:06;;;;;;;3.00;0.60;;;9.20;99.90;;;;;;7545430;19;20032;-79
2023/11/06 02:12:39;;;;;;;3.55;0.60;;;9.30;99.90;;;;;;7540297;19;20177;-78
2023/11/06 02:15:15;;;;;;;1.85;0.73;;;9.30;99.90;;;;;;7531214;19;20690;-78
2023/11/06 02:17:48;;;;;;;2.60;0.57;;;9.30;99.90;;;;;;7537847;19;20030;-77
2023/11/06 02:20:20;;;;;;;3.67;0.65;;;9.30;99.90;;;;;;7550928;19;20440;-77
2023/11/06 02:23:01;;;;;;;3.88;0.93;;;9.30;99.90;;;;;;7552463;19;20022;-78
2023/11/06 02:25:33;;;;;;;3.70;0.65;;;9.30;99.90;;;;;;7539081;19;20007;-78
2023/11/06 02:28:07;;;;;;;1.10;0.65;;;9.20;99.90;;;;;;7562201;19;20019;-78
2023/11/06 02:30:39;;;;;;;;;;;9.20;99.90;;;;;;7559772;19;20370;-78
2023/11/06 02:33:11;;;;;;;1.90;0.47;;;9.10;99.90;;;;;;7555968;19;19945;-77
2023/11/06 02:35:44;;;;;;;2.70;0.80;;;9.20;99.90;;;;;;7529368;19;20018;-77
2023/11/06 02:38:16;;;;;;;6.28;0.65;;;9.20;99.90;;;;;;7549322;19;20672;-76
2023/11/06 02:40:48;;;;;;;1.98;0.50;;;9.10;99.90;;;;;;7549020;19;21411;-76
2023/11/06 02:43:21;;;;;;;2.05;0.47;;;9.10;99.90;;;;;;7541234;19;21307;-77
2023/11/06 02:45:55;;;;;;;3.33;1.00;;;9.20;99.90;;;;;;7534254;19;20014;-76
2023/11/06 02:48:28;;;;;;;2.38;0.85;;;9.10;99.90;;;;;;7538920;19;21032;-77
2023/11/06 02:51:00;;;;;;;1.80;0.70;;;9.10;99.90;;;;;;7560548;19;20014;-76
2023/11/06 02:53:32;;;;;;;3.53;0.52;;;9.10;99.90;;;;;;7540023;19;20029;-77
2023/11/06 02:56:05;;;;;;;2.05;0.80;;;8.90;99.90;;;;;;7559099;19;20400;-77
2023/11/06 02:58:38;;;;;;;7.63;0.70;;;9.00;99.90;;;;;;7542202;19;20018;-76
2023/11/06 03:01:11;;;;;;;1.30;0.55;;;9.00;99.90;;;;;;7544133;19;21132;-76
2023/11/06 03:03:44;;;;;;;1.25;0.60;;;9.00;99.90;;;;;;7544357;19;20520;-77
2023/11/06 03:06:16;;;;;;;2.00;0.57;;;8.90;99.90;;;;;;7548330;19;21060;-76
2023/11/06 03:08:48;;;;;;;4.63;0.88;;;8.90;99.90;;;;;;7567592;19;21374;-77
2023/11/06 03:11:22;;;;;;;0.80;0.50;;;8.90;99.90;;;;;;7552151;19;20011;-77
2023/11/06 03:13:55;;;;;;;3.17;0.75;;;8.90;99.90;;;;;;7548159;19;20029;-77
2023/11/06 03:16:27;;;;;;;3.17;0.70;;;8.80;99.90;;;;;;7549115;19;20019;-78
2023/11/06 03:18:59;;;;;;;3.95;0.95;;;8.80;99.90;;;;;;7540319;19;20018;-78
2023/11/06 03:21:32;;;;;;;2.00;0.70;;;8.80;99.90;;;;;;7554342;19;20244;-78
2023/11/06 03:24:05;;;;;;;3.38;0.73;;;8.80;99.90;;;;;;7537185;19;25487;-77
2023/11/06 03:26:37;;;;;;;3.40;0.87;;;8.90;99.90;;;;;;7557534;19;20013;-77
2023/11/06 03:29:09;;;;;;;3.30;0.73;;;9.00;99.90;;;;;;7542525;19;20018;-76
2023/11/06 03:31:41;;;;;;;1.63;0.80;;;9.00;99.90;;;;;;7536937;19;21362;-78
2023/11/06 03:34:13;;;;;;;1.23;0.70;;;9.00;99.90;;;;;;7543433;19;20962;-76
2023/11/06 03:36:46;;;;;;;0.90;0.68;;;9.00;99.90;;;;;;7505842;19;20011;-75
2023/11/06 03:39:18;;;;;;;1.52;0.60;;;9.00;99.90;;;;;;7540175;19;20022;-76
2023/11/06 03:41:51;;;;;;;4.00;0.85;;;8.90;99.90;;;;;;7516863;19;21176;-76
2023/11/06 03:44:25;;;;;;;3.13;0.98;;;8.90;99.90;;;;;;7516196;19;20754;-76
2023/11/06 03:46:58;;;;;;;1.80;0.60;;;8.80;99.90;;;;;;7544547;19;22057;-76
2023/11/06 03:49:31;;;;;;;2.05;0.82;;;8.90;99.90;;;;;;7524364;19;20025;-76
2023/11/06 03:52:05;;;;;;;3.25;0.80;;;8.90;99.90;;;;;;7536235;19;20006;-76
2023/11/06 03:54:38;;;;;;;4.45;0.80;;;8.90;99.90;;;;;;7536006;19;20542;-76
2023/11/06 03:57:12;;;;;;;2.05;0.60;;;8.90;99.90;;;;;;7537545;19;20765;-78
2023/11/06 03:59:44;;;;;;;2.53;0.70;;;8.80;99.90;;;;;;7517533;19;22157;-78
2023/11/06 04:02:17;;;;;;;3.10;0.82;;;8.80;99.90;;;;;;7529942;19;20017;-79
2023/11/06 04:04:49;;;;;;;1.93;0.80;;;8.80;99.90;;;;;;7540320;19;20014;-78
2023/11/06 04:07:21;;;;;;;1.27;0.80;;;8.90;99.90;;;;;;7554550;19;20010;-78
2023/11/06 04:09:56;;;;;;;1.20;0.70;;;8.90;99.90;;;;;;7557302;19;20521;-78
2023/11/06 04:12:28;;;;;;;3.13;0.73;;;8.80;99.90;;;;;;7534588;19;20493;-77
2023/11/06 04:15:00;;;;;;;1.88;1.23;;;8.90;99.90;;;;;;7554312;19;20007;-78
2023/11/06 04:17:33;;;;;;;3.85;2.15;;;8.90;99.90;;;;;;7550392;19;20014;-78
2023/11/06 04:20:07;;;;;;;2.38;0.90;;;8.80;99.90;;;;;;7537556;19;20437;-75
2023/11/06 04:22:40;;;;;;;2.90;0.60;;;8.80;99.90;;;;;;7561259;19;20034;-76
2023/11/06 04:25:12;;;;;;;1.90;0.77;;;8.80;99.90;;;;;;7555438;19;20086;-76
2023/11/06 04:27:45;;;;;;;2.53;0.85;;;8.80;99.90;;;;;;7526571;19;20278;-76
2023/11/06 04:30:18;;;;;;;2.28;1.00;;;8.70;99.90;;;;;;7526210;19;20593;-76
2023/11/06 04:32:50;;;;;;;5.43;1.15;;;8.80;99.90;;;;;;7554284;19;20642;-76
2023/11/06 04:35:22;;;;;;;2.83;0.80;;;8.80;99.90;;;;;;7548215;19;20010;-76
2023/11/06 04:37:54;;;;;;;2.20;0.90;;;8.80;99.90;;;;;;7556483;19;20015;-76
2023/11/06 04:40:28;;;;;;;2.35;0.88;;;8.80;99.90;;;;;;7549499;19;20840;-77
2023/11/06 04:43:00;;;;;;;0.80;0.70;;;8.80;99.90;;;;;;7546050;19;21058;-77
2023/11/06 04:45:33;;;;;;;8.98;1.10;;;8.80;99.90;;;;;;7550810;19;20962;-77
2023/11/06 04:48:06;;;;;;;4.50;1.10;;;8.70;99.90;;;;;;7557960;19;21082;-78
2023/11/06 04:50:39;;;;;;;2.15;1.13;;;8.80;99.90;;;;;;7536568;19;20564;-79
2023/11/06 04:53:11;;;;;;;4.80;0.80;;;8.80;99.90;;;;;;7541140;19;20567;-78
2023/11/06 04:55:43;;;;;;;3.67;1.10;;;8.70;99.90;;;;;;7539881;19;20601;-78
2023/11/06 04:58:15;;;;;;;1.90;0.70;;;8.70;99.90;;;;;;7557999;19;20405;-78
2023/11/06 05:00:48;;;;;;;1.47;0.90;;;8.80;99.90;;;;;;7541321;19;20831;-78
2023/11/06 05:03:20;;;;;;;2.88;1.00;;;8.80;99.90;;;;;;7551559;19;20048;-78
2023/11/06 05:05:53;;;;;;;1.10;0.70;;;8.70;99.90;;;;;;7558104;19;20544;-77
2023/11/06 05:08:28;;;;;;;3.47;1.00;;;8.60;99.90;;;;;;7561345;19;20786;-78
2023/11/06 05:11:01;;;;;;;4.43;1.48;;;8.60;99.90;;;;;;7547248;19;20516;-78
2023/11/06 05:13:33;;;;;;;3.25;1.27;;;8.50;99.90;;;;;;7564888;19;20077;-77
2023/11/06 05:16:06;;;;;;;2.85;1.08;;;8.70;99.90;;;;;;7564941;19;20014;-77
2023/11/06 05:18:38;;;;;;;4.27;1.47;;;8.50;99.90;;;;;;7561475;19;20388;-77
2023/11/06 05:21:10;;;;;;;4.05;1.08;;;8.50;99.90;;;;;;7563953;19;20010;-76
2023/11/06 05:23:43;;;;;;;5.57;1.17;;;8.60;99.90;;;;;;7531581;19;20524;-78
2023/11/06 05:26:15;;;;;;;3.55;1.00;;;8.70;99.90;;;;;;7548683;19;20263;-78
2023/11/06 05:28:48;;;;;;;4.95;0.95;;;8.60;99.90;;;;;;7535911;19;20062;-77
2023/11/06 05:31:20;;;;;;;5.60;2.30;;;8.70;99.90;;;;;;7518622;19;20021;-77
2023/11/06 05:33:52;;;;;;;2.85;0.95;;;8.60;99.90;;;;;;7536518;19;20066;-78
2023/11/06 05:36:25;;;;;;;1.58;0.93;;;8.60;99.90;;;;;;7542601;19;20701;-76
2023/11/06 05:38:57;;;;;;;2.88;1.10;;;8.60;99.90;;;;;;7533419;19;21297;-78
2023/11/06 05:41:29;;;;;;;4.45;1.52;;;8.50;99.90;;;;;;7541870;19;20022;-75
2023/11/06 05:44:02;;;;;;;2.45;1.10;;;8.50;99.90;;;;;;7521613;19;20025;-76
2023/11/06 05:46:34;;;;;;;2.25;0.93;;;8.60;99.90;;;;;;7522643;19;20019;-76
2023/11/06 05:49:06;;;;;;;3.97;1.02;;;8.60;99.90;;;;;;7551651;19;20531;-77
2023/11/06 05:51:39;;;;;;;3.57;1.13;;;8.50;99.90;;;;;;7532554;19;20672;-75
2023/11/06 05:54:11;;;;;;;3.17;0.90;;;8.40;99.90;;;;;;7548392;19;20081;-78
2023/11/06 05:56:44;;;;;;;4.80;1.30;;;8.30;99.90;;;;;;7522827;19;20018;-76
2023/11/06 05:59:17;;;;;;;2.57;1.00;;;8.40;99.90;;;;;;7540675;19;20329;-76
2023/11/06 06:01:49;;;;;;;2.35;1.35;;;8.30;99.90;;;;;;7491209;19;20614;-76
2023/11/06 06:04:21;;;;;;;4.15;1.20;;;8.30;99.90;;;;;;7532180;19;20513;-75
2023/11/06 06:06:55;;;;;;;4.90;2.10;;;8.30;99.90;;;;;;7503045;19;20011;-78
2023/11/06 06:09:28;;;;;;;;;;;8.30;99.90;;;;;;7522813;19;20022;-77
2023/11/06 06:12:01;;;;;;;4.00;1.48;;;8.30;99.90;;;;;;7520201;19;19925;-79
2023/11/06 06:14:33;;;;;;;2.53;1.65;;;8.20;99.90;;;;;;7484620;19;20105;-78
2023/11/06 06:17:06;;;;;;;5.32;1.67;;;8.10;99.90;;;;;;7532998;19;21171;-78
2023/11/06 06:19:39;;;;;;;4.63;2.00;;;8.00;99.90;;;;;;7539649;19;20015;-78
2023/11/06 06:22:11;;;;;;;5.28;1.65;;;7.70;99.90;;;;;;7527099;19;20445;-79
2023/11/06 06:24:45;;;;;;;4.57;2.17;;;7.70;99.90;;;;;;7507056;19;21040;-79
2023/11/06 06:27:17;;;;;;;4.13;1.80;;;7.50;99.90;;;;;;7524056;19;20014;-78
2023/11/06 06:29:52;;;;;;;4.72;2.00;;;7.50;99.90;;;;;;7514048;19;20336;-78
2023/11/06 06:32:24;;;;;;;5.32;1.48;;;7.40;99.90;;;;;;7524329;19;20085;-77
2023/11/06 06:34:57;;;;;;;3.97;1.50;;;7.30;99.90;;;;;;7512476;19;20021;-79
2023/11/06 06:37:30;;;;;;;3.57;1.60;;;7.20;99.90;;;;;;7519779;19;20122;-78
2023/11/06 06:40:07;;;;;;;3.80;1.50;;;7.20;99.90;;;;;;7559450;19;20011;-77
2023/11/06 06:42:39;;;;;;;2.33;1.38;;;7.20;99.90;;;;;;7559469;19;20010;-77
2023/11/06 06:45:12;;;;;;;2.70;1.30;;;7.30;99.90;;;;;;7563239;19;20050;-78
2023/11/06 06:47:44;;;;;;;3.38;1.25;;;7.30;99.90;;;;;;7550428;19;20034;-78
2023/11/06 06:50:16;;;;;;;4.55;1.42;;;7.40;99.90;;;;;;7565142;19;20063;-78
2023/11/06 06:52:51;;;;;;;5.32;1.80;;;7.40;99.90;;;;;;7561096;19;20328;-78
2023/11/06 06:55:23;;;;;;;8.02;1.92;;;7.40;99.90;;;;;;7566188;19;20018;-79
2023/11/06 06:57:59;;;;;;;6.03;1.80;;;7.40;99.90;;;;;;7567450;19;20603;-79
2023/11/06 07:00:33;;;;;;;5.15;2.10;;;7.50;99.90;;;;;;7569929;19;20587;-78
2023/11/06 07:03:05;;;;;;;5.47;1.75;;;7.50;99.90;;;;;;7547194;19;20199;-78
2023/11/06 07:05:38;;;;;;;4.97;1.80;;;7.70;99.90;;;;;;7575371;19;20011;-78
2023/11/06 07:08:11;;;;;;;;;;;7.70;99.90;;;;;;7548812;19;21406;-77
2023/11/06 07:10:43;;;;;;;9.85;3.35;;;7.70;99.90;;;;;;7553632;19;20342;-76
2023/11/06 07:13:15;;;;;;;5.18;1.60;;;7.90;99.90;;;;;;7553317;19;20574;-76
2023/11/06 07:15:48;;;;;;;6.82;2.03;;;7.80;99.90;;;;;;7542757;19;20192;-76
2023/11/06 07:18:20;;;;;;;7.63;3.20;;;7.90;99.90;;;;;;7548869;19;20087;-76
2023/11/06 07:20:52;;;;;;;6.32;3.28;;;8.00;99.90;;;;;;7554760;19;20018;-77
2023/11/06 07:23:24;;;;;;;7.85;2.60;;;8.10;99.90;;;;;;7530507;19;20021;-75
2023/11/06 07:25:56;;;;;;;7.20;2.88;;;8.30;99.90;;;;;;7538587;19;20755;-77
2023/11/06 07:28:29;;;;;;;8.25;2.50;;;8.40;99.90;;;;;;7554369;19;20033;-78
2023/11/06 07:31:01;;;;;;;3.65;2.10;;;8.60;99.90;;;;;;7534926;19;20019;-76
2023/11/06 07:33:33;;;;;;;7.35;2.20;;;8.70;99.90;;;;;;7556231;19;20015;-76
2023/11/06 07:36:07;;;;;;;6.30;2.05;;;8.80;99.90;;;;;;7545394;19;20019;-77
2023/11/06 07:38:39;;;;;;;8.88;2.47;;;8.80;99.90;;;;;;7563315;19;20010;-75
2023/11/06 07:41:12;;;;;;;14.45;5.03;;;8.80;99.90;;;;;;7553497;19;20013;-76
2023/11/06 07:43:45;;;;;;;13.97;5.03;;;8.90;99.90;;;;;;7559624;19;21689;-76
2023/11/06 07:46:18;;;;;;;8.75;3.67;;;9.00;99.90;;;;;;7549906;19;21230;-75
2023/11/06 07:48:51;;;;;;;8.63;1.77;;;9.10;99.90;;;;;;7556613;19;20055;-75
2023/11/06 07:51:25;;;;;;;8.45;3.05;;;9.50;99.90;;;;;;7552605;19;20018;-75
2023/11/06 07:53:57;;;;;;;6.28;2.50;;;9.60;99.90;;;;;;7549274;19;20121;-75
2023/11/06 07:56:30;;;;;;;8.85;2.10;;;9.70;99.90;;;;;;7553939;19;20018;-77
2023/11/06 07:59:03;;;;;;;11.68;3.42;;;9.70;99.90;;;;;;7544100;19;20713;-76
2023/11/06 08:01:35;;;;;;;6.40;1.95;;;9.70;99.90;;;;;;7543758;19;20018;-77
2023/11/06 08:04:07;;;;;;;8.15;2.45;;;9.80;99.90;;;;;;7531615;19;20974;-76
2023/11/06 08:06:40;;;;;;;8.65;2.35;;;9.90;99.90;;;;;;7534339;19;20137;-76
2023/11/06 08:09:12;;;;;;;6.78;2.22;;;10.00;99.90;;;;;;7548029;19;20753;-77
2023/11/06 08:11:44;;;;;;;9.23;2.97;;;10.00;99.90;;;;;;7562346;19;20022;-76
2023/11/06 08:14:17;;;;;;;11.30;2.63;;;10.10;99.90;;;;;;7549846;19;22012;-75
2023/11/06 08:16:49;;;;;;;6.53;1.48;;;10.20;99.90;;;;;;7551142;19;20014;-75
2023/11/06 08:19:22;;;;;;;5.13;1.60;;;10.30;99.90;;;;;;7548074;19;20014;-74
2023/11/06 08:21:55;;;;;;;4.13;1.37;;;10.40;99.90;;;;;;7557421;19;20684;-74
2023/11/06 08:24:30;;;;;;;3.00;1.70;;;10.60;99.90;;;;;;7538540;19;20155;-76
2023/11/06 08:27:02;;;;;;;3.88;1.20;;;10.80;99.90;;;;;;7549665;19;20019;-75
2023/11/06 08:29:34;;;;;;;4.70;0.90;;;10.80;99.90;;;;;;7548472;19;20051;-75
2023/11/06 08:32:11;;;;;;;3.80;1.30;;;10.80;99.90;;;;;;7546979;19;20044;-75
2023/11/06 08:34:47;;;;;;;4.13;0.77;;;10.80;99.90;;;;;;7556711;19;20022;-76
2023/11/06 08:37:20;;;;;;;3.08;1.10;;;10.80;99.90;;;;;;7550724;19;20022;-75
2023/11/06 08:39:55;;;;;;;2.80;0.90;;;10.80;99.90;;;;;;7554306;19;20338;-77
2023/11/06 08:42:27;;;;;;;1.60;0.75;;;10.80;99.90;;;;;;7547853;19;20018;-76
2023/11/06 08:45:00;;;;;;;6.43;1.15;;;10.80;99.90;;;;;;7550919;19;20049;-76
2023/11/06 08:47:32;;;;;;;4.40;0.90;;;10.90;99.90;;;;;;7552238;19;20396;-75
2023/11/06 08:50:05;;;;;;;1.90;0.85;;;11.00;99.90;;;;;;7551605;19;20060;-75
2023/11/06 08:52:38;;;;;;;3.15;1.25;;;11.00;99.90;;;;;;7552922;19;20018;-75
2023/11/06 08:55:10;;;;;;;1.40;0.90;;;11.00;99.90;;;;;;7541996;19;20060;-75
2023/11/06 08:57:46;;;;;;;1.90;0.65;;;11.00;99.90;;;;;;7575890;19;21425;-75
2023/11/06 09:00:18;;;;;;;5.20;1.00;;;11.00;99.90;;;;;;7552394;19;20014;-76
2023/11/06 09:02:51;;;;;;;2.60;1.00;;;11.00;99.90;;;;;;7559328;19;20006;-76
2023/11/06 09:05:23;;;;;;;1.35;0.60;;;11.10;99.90;;;;;;7533550;19;20014;-76
2023/11/06 09:07:56;;;;;;;3.50;1.00;;;11.10;99.90;;;;;;7551682;19;20014;-75
2023/11/06 09:10:28;;;;;;;4.68;0.80;;;11.30;99.90;;;;;;7554094;19;21422;-76
2023/11/06 09:13:01;;;;;;;1.58;0.90;;;11.30;99.90;;;;;;7558037;19;21234;-77
2023/11/06 09:15:37;;;;;;;2.78;0.75;;;11.40;99.90;;;;;;7544750;19;20691;-77
2023/11/06 09:18:11;;;;;;;2.80;0.85;;;11.50;99.90;;;;;;7546519;19;20010;-75
2023/11/06 09:20:43;;;;;;;3.03;1.05;;;11.50;99.90;;;;;;7564590;19;20021;-75
2023/11/06 09:23:16;;;;;;;4.50;0.75;;;11.60;99.90;;;;;;7546008;19;20018;-76
2023/11/06 09:25:49;;;;;;;4.90;1.13;;;11.70;99.90;;;;;;7557566;19;20108;-77
2023/11/06 09:28:21;;;;;;;2.78;1.00;;;11.60;99.90;;;;;;7547544;19;20610;-76
2023/11/06 09:30:54;;;;;;;3.92;1.23;;;11.70;99.90;;;;;;7556639;19;20029;-75
2023/11/06 09:33:27;;;;;;;3.87;0.87;;;11.70;99.90;;;;;;7546980;19;20022;-74
2023/11/06 09:35:59;;;;;;;1.85;0.80;;;11.70;99.90;;;;;;7556705;19;20018;-75
2023/11/06 09:38:32;;;;;;;3.03;1.27;;;11.80;99.90;;;;;;7553768;19;20319;-75
2023/11/06 09:41:05;;;;;;;1.85;0.73;;;12.00;99.90;;;;;;7555334;19;20015;-77
2023/11/06 09:43:38;;;;;;;2.38;0.95;;;12.00;99.90;;;;;;7546067;19;21820;-76
2023/11/06 09:46:12;;;;;;;2.63;0.80;;;12.10;99.90;;;;;;7552246;19;20050;-75
2023/11/06 09:48:46;;;;;;;0.93;0.55;;;12.20;99.90;;;;;;7554274;19;20018;-75
2023/11/06 09:51:24;;;;;;;3.58;1.15;;;12.20;99.90;;;;;;7553390;19;20006;-77
2023/11/06 09:53:58;;;;;;;2.40;0.77;;;12.30;99.90;;;;;;7564041;19;20021;-75
2023/11/06 09:56:32;;;;;;;2.50;0.70;;;12.30;99.90;;;;;;7537838;19;20022;-75
2023/11/06 09:59:04;;;;;;;3.80;0.98;;;12.40;99.90;;;;;;7546870;19;20012;-78
2023/11/06 10:01:37;;;;;;;2.40;0.60;;;12.50;99.90;;;;;;7553759;19;20110;-77
2023/11/06 10:04:09;;;;;;;2.40;0.50;;;12.50;99.90;;;;;;7564459;19;20048;-76
2023/11/06 10:06:44;;;;;;;2.90;0.95;;;12.50;99.90;;;;;;7514088;19;20539;-75
2023/11/06 10:09:22;;;;;;;1.92;0.70;;;12.50;99.90;;;;;;7549533;19;20558;-74
2023/11/06 10:11:58;;;;;;;4.15;1.08;;;12.50;99.90;;;;;;7542519;19;20564;-75
2023/11/06 10:14:38;;;;;;;2.10;0.80;;;12.70;99.90;;;;;;7540031;19;20014;-76
2023/11/06 10:17:10;;;;;;;1.08;0.52;;;12.70;99.90;;;;;;7543203;19;20021;-76
2023/11/06 10:19:59;;;;;;;2.65;0.60;;;12.80;99.90;;;;;;7547178;19;20578;-75
2023/11/06 10:22:32;;;;;;;2.08;0.65;;;12.80;99.90;;;;;;7546285;19;20018;-76
2023/11/06 10:25:08;;;;;;;2.00;0.55;;;12.80;99.90;;;;;;7540712;19;20056;-75
2023/11/06 10:27:40;;;;;;;1.55;0.45;;;12.80;99.90;;;;;;7550265;19;20018;-76
2023/11/06 10:30:14;;;;;;;1.70;0.60;;;12.90;99.90;;;;;;7543388;19;20018;-74
2023/11/06 10:32:46;;;;;;;6.38;0.80;;;12.90;99.90;;;;;;7548609;19;20699;-77
2023/11/06 10:35:19;;;;;;;1.90;0.70;;;12.90;99.90;;;;;;7530768;19;20026;-74
2023/11/06 10:37:51;;;;;;;1.08;0.50;;;12.90;99.90;;;;;;7543209;19;20014;-76
2023/11/06 10:40:31;;;;;;;1.75;0.60;;;12.90;99.90;;;;;;7538476;19;20015;-75
2023/11/06 10:43:04;;;;;;;2.53;0.47;;;12.90;99.90;;;;;;7545605;19;20687;-76
2023/11/06 10:45:38;;;;;;;2.28;0.43;;;13.00;99.90;;;;;;7544498;19;20502;-76
2023/11/06 10:48:15;;;;;;;4.05;0.40;;;13.20;99.90;;;;;;7547156;19;20015;-76
2023/11/06 10:50:47;;;;;;;1.48;0.50;;;13.30;99.90;;;;;;7552004;19;20473;-76
2023/11/06 10:53:22;;;;;;;1.77;0.47;;;13.40;99.90;;;;;;7549942;19;20093;-78
2023/11/06 10:55:55;;;;;;;1.73;0.65;;;13.70;99.90;;;;;;7550094;19;20309;-75
2023/11/06 10:58:29;;;;;;;1.95;0.57;;;13.90;99.80;;;;;;7558388;19;20456;-76
2023/11/06 11:01:02;;;;;;;0.85;0.52;;;14.00;98.90;;;;;;7527769;19;21002;-74
2023/11/06 11:03:35;;;;;;;0.85;0.47;;;13.80;99.00;;;;;;7550405;19;20543;-77
2023/11/06 11:06:10;;;;;;;2.30;0.50;;;13.70;98.20;;;;;;7543908;19;20037;-75
2023/11/06 11:08:42;;;;;;;1.10;0.60;;;14.30;98.50;;;;;;7542935;19;20062;-75
2023/11/06 11:11:15;;;;;;;1.80;0.60;;;15.00;96.60;;;;;;7542745;19;20425;-76
2023/11/06 11:13:49;;;;;;;1.17;0.65;;;15.40;96.30;;;;;;7537719;19;20010;-75
2023/11/06 11:16:37;;;;;;;5.50;0.70;;;;;;;;;;7544168;19;20060;-75
2023/11/06 11:19:20;;;;;;;1.92;0.70;;;;;;;;;;7538537;19;20226;-77
2023/11/06 11:22:10;;;;;;;2.73;0.83;;;16.20;95.50;;;;;;7561115;19;20022;-78
2023/11/06 11:24:45;;;;;;;1.00;0.60;;;26.40;67.20;;;;;;7540782;19;20271;-78
2023/11/06 11:27:23;;;;;;;1.00;0.63;;;24.70;60.70;;;;;;7544168;19;20679;-78
2023/11/06 11:29:58;;;;;;;5.10;0.60;;;21.90;66.00;;;;;;7551166;19;20052;-78
2023/11/06 11:32:36;;;;;;;1.63;0.90;;;22.10;66.60;;;;;;7550730;19;20515;-77
2023/11/06 11:35:22;;;;;;;0.63;0.50;;;23.70;62.00;;;;;;7541965;19;21036;-77
2023/11/06 11:37:59;;;;;;;1.08;0.65;;;25.80;58.20;;;;;;7549422;19;20093;-77
2023/11/06 11:40:41;;;;;;;0.82;0.63;;;25.10;57.40;;;;;;7542782;19;20052;-77
2023/11/06 11:43:28;;;;;;;0.47;0.30;;;27.00;54.40;;;;;;7539896;19;20422;-77
2023/11/06 11:46:00;;;;;;;1.20;0.60;;;24.40;58.00;;;;;;7530974;19;20048;-76
2023/11/06 11:48:51;;;;;;;1.60;0.60;;;21.80;60.10;;;;;;7545830;19;20018;-78
2023/11/06 11:51:49;;;;;;;1.88;0.38;;;20.40;63.30;;;;;;7560065;19;20602;-76
2023/11/06 11:54:32;;;;;;;1.98;0.40;;;19.40;64.90;;;;;;7537705;19;20340;-76
2023/11/06 11:57:07;;;;;;;3.22;0.90;;;18.30;68.10;;;;;;7544077;19;20018;-77
2023/11/06 11:59:50;;;;;;;5.28;2.63;;;17.40;70.80;;;;;;7552920;19;20412;-78
2023/11/06 12:02:32;;;;;;;1.27;0.65;;;16.70;72.30;;;;;;7545738;19;20730;-75
2023/11/06 12:05:14;;;;;;;3.23;0.70;;;16.20;73.90;;;;;;7546961;19;20044;-77
2023/11/06 12:07:47;;;;;;;2.75;1.33;;;15.70;75.20;;;;;;7551601;19;20678;-77
2023/11/06 12:10:28;;;;;;;2.33;1.10;;;15.60;77.80;;;;;;7521398;19;20934;-77
2023/11/06 12:13:12;;;;;;;3.45;1.08;;;15.80;77.30;;;;;;7530230;19;20017;-77
2023/11/06 12:15:45;;;;;;;8.30;1.88;;;15.70;77.40;;;;;;7530978;19;20034;-76
2023/11/06 12:18:21;;;;;;;2.50;1.00;;;15.30;78.50;;;;;;7533654;19;20910;-76
2023/11/06 12:20:56;;;;;;;2.88;0.85;;;15.40;79.60;;;;;;7539412;19;20657;-75
2023/11/06 12:23:30;;;;;;;5.43;0.77;;;15.30;80.10;;;;;;7534177;19;20018;-76
2023/11/06 12:26:12;;;;;;;3.35;0.95;;;15.70;80.00;;;;;;7540078;19;21046;-77
2023/11/06 12:28:47;;;;;;;1.52;0.65;;;15.60;78.80;;;;;;7560394;19;20054;-76
2023/11/06 12:31:20;;;;;;;3.55;0.50;;;15.50;80.80;;;;;;7538852;19;20072;-76
2023/11/06 12:33:52;;;;;;;1.13;0.65;;;15.30;80.40;;;;;;7536740;19;21586;-77
2023/11/06 12:36:28;;;;;;;1.30;0.40;;;15.10;80.80;;;;;;7526918;19;20082;-77
2023/11/06 12:39:02;;;;;;;0.77;0.47;;;14.80;82.30;;;;;;7536525;19;20011;-77
2023/11/06 12:41:38;;;;;;;1.35;0.52;;;14.80;82.50;;;;;;7516617;19;20018;-77
2023/11/06 12:44:15;;;;;;;1.42;0.68;;;14.70;82.70;;;;;;7524073;19;20025;-78
2023/11/06 12:46:48;;;;;;;2.92;1.15;;;14.80;82.80;;;;;;7513855;19;20752;-78
2023/11/06 12:49:47;;;;;;;0.77;0.60;;;14.70;83.20;;;;;;7489227;19;20609;-77
2023/11/06 12:52:21;;;;;;;3.17;0.95;;;14.50;81.40;;;;;;7498267;19;20007;-78
2023/11/06 12:54:53;;;;;;;;;;;14.50;81.90;;;;;;7547548;19;20011;-78
2023/11/06 12:57:29;;;;;;;3.90;1.60;;;14.50;80.40;;;;;;7547013;19;20568;-77
2023/11/06 13:00:01;;;;;;;1.90;0.60;;;14.60;81.90;;;;;;7554964;19;20682;-76
2023/11/06 13:02:34;;;;;;;2.08;0.80;;;14.60;82.20;;;;;;7530201;19;20345;-77
2023/11/06 13:05:09;;;;;;;1.20;0.67;;;14.80;80.00;;;;;;7540198;19;20038;-76
2023/11/06 13:07:44;;;;;;;1.55;0.90;;;15.10;77.70;;;;;;7545427;19;20022;-77
2023/11/06 13:10:16;;;;;;;1.08;0.50;;;15.10;79.70;;;;;;7552548;19;20050;-77
2023/11/06 13:12:48;;;;;;;1.60;0.50;;;14.80;78.90;;;;;;7551353;19;20010;-77
2023/11/06 13:15:21;;;;;;;1.20;0.40;;;14.70;79.50;;;;;;7527328;19;20947;-77
2023/11/06 13:17:54;;;;;;;4.50;1.70;;;14.40;80.10;;;;;;7532038;19;20454;-77
2023/11/06 13:20:31;;;;;;;2.85;0.95;;;14.30;80.60;;;;;;7532667;19;20052;-77
2023/11/06 13:23:04;;;;;;;8.00;2.15;;;14.10;80.60;;;;;;7542121;19;20059;-76
2023/11/06 13:25:36;;;;;;;3.80;1.85;;;14.00;81.30;;;;;;7541268;19;20076;-77
2023/11/06 13:28:08;;;;;;;2.40;1.27;;;14.00;82.90;;;;;;7512825;19;20038;-77
2023/11/06 13:30:42;;;;;;;2.33;0.80;;;13.90;83.20;;;;;;7492939;19;20010;-77